VAAH

Sardar Vallabhbhai Patel International Airport

Ahmedabad, India
TAF VAAH 210800Z 2109/2118 25006KT 4000 HZ-RA SCT010 SCT015 BKN080 BECMG 2112/2114 23008KT 3000 HZ-RA SCT010 SCT015 BKN080 TEMPO 2117/2120 24006KT 2500 HZRA SCT010 SCT015 FEW030CB BKN080
Issued Valid From Valid To
Jul-21 @ 08:00 UTC
(2 hours ago)
Jul-21 @ 09:00 UTC
(57 minutes ago)
Jul-21 @ 18:00 UTC
(in 8 hours)
Jul-21 @ 09:00 to Jul-21 @ 12:00
TAF VAAH 210800Z 2109/2118 25006KT 4000 HZ-RA SCT010 SCT015 BKN080
Wind Visibility Clouds Conditions
250° at 6 knots 4,007 meters
  • Scattered at 1,000' AGL
  • Scattered at 1,500' AGL
  • Broken at 8,000' AGL
  • Light Rain
  • Haze
Becoming Jul-21 @ 12:00 to Jul-21 @ 18:00
BECMG 2112/2114 23008KT 3000 HZ-RA SCT010 SCT015 BKN080
Wind Visibility Clouds Conditions
230° at 8 knots 2,993 meters
  • Scattered at 1,000' AGL
  • Scattered at 1,500' AGL
  • Broken at 8,000' AGL
  • Light Rain
  • Haze
Temporary Jul-21 @ 17:00 to Jul-21 @ 20:00
TEMPO 2117/2120 24006KT 2500 HZRA SCT010 SCT015 FEW030CB BKN080
Wind Visibility Clouds Conditions
240° at 6 knots 2,494 meters
  • Scattered at 1,000' AGL
  • Scattered at 1,500' AGL
  • Few at 3,000' AGL
  • Rain
  • Haze
TAF VAAH 210800Z 2109/2118 25006KT 4000 HZ-RA SCT010 SCT015 BKN080 BECMG 2112/2114 23008KT 3000 HZ-RA SCT010 SCT015 BKN080 TEMPO 2117/2120 24006KT 2500 HZRA SCT010 SCT015 FEW030CB BKN080
Issued Jul-21 @ 08:00 UTC
(2 hours ago)
Valid From Jul-21 @ 09:00 UTC
(57 minutes ago)
Valid To Jul-21 @ 18:00 UTC
(in 8 hours)
Jul-21 @ 09:00 - Jul-21 @ 12:00
Wind Visibility
250° at 6 knots 4,007 meters
Clouds
  • Scattered at 1,000' AGL
  • Scattered at 1,500' AGL
  • Broken at 8,000' AGL
Conditions
  • Light Rain
  • Haze
Becoming Jul-21 @ 12:00 - Jul-21 @ 18:00
Wind Visibility
230° at 8 knots 2,993 meters
Clouds
  • Scattered at 1,000' AGL
  • Scattered at 1,500' AGL
  • Broken at 8,000' AGL
Conditions
  • Light Rain
  • Haze
Temporary Jul-21 @ 17:00 - Jul-21 @ 20:00
Wind Visibility
240° at 6 knots 2,494 meters
Clouds
  • Scattered at 1,000' AGL
  • Scattered at 1,500' AGL
  • Few at 3,000' AGL
Conditions
  • Rain
  • Haze